createdAt,value
2018-11-10T00:00:49.940Z,21.10
2018-11-10T00:01:49.913Z,20.60
2018-11-10T00:02:49.927Z,19.80
2018-11-10T00:03:49.891Z,21.00
2018-11-10T00:04:49.880Z,19.50
2018-11-10T00:05:49.882Z,21.90
2018-11-10T00:06:49.869Z,22.20
2018-11-10T00:07:49.897Z,21.50
2018-11-10T00:08:49.849Z,26.50
2018-11-10T00:09:49.828Z,21.10
2018-11-10T00:10:49.840Z,22.20
2018-11-10T00:11:49.806Z,22.00
2018-11-10T00:12:49.812Z,22.70
2018-11-10T00:13:49.794Z,22.20
2018-11-10T00:14:49.779Z,24.10
2018-11-10T00:15:49.765Z,25.50
2018-11-10T00:16:49.751Z,21.80
2018-11-10T00:17:49.755Z,21.20
2018-11-10T00:18:49.729Z,21.50
2018-11-10T00:19:49.721Z,19.40
2018-11-10T00:20:49.722Z,20.50
2018-11-10T00:21:49.697Z,21.80
2018-11-10T00:22:49.703Z,20.30
2018-11-10T00:23:49.682Z,21.00
2018-11-10T00:24:49.665Z,19.90
2018-11-10T00:25:49.658Z,19.50
2018-11-10T00:26:49.643Z,19.90
2018-11-10T00:27:49.667Z,20.70
2018-11-10T00:28:49.619Z,18.60
2018-11-10T00:29:49.610Z,20.20
2018-11-10T00:30:49.603Z,19.00
2018-11-10T00:31:56.696Z,21.30
2018-11-10T00:32:49.624Z,18.20
2018-11-10T00:33:49.565Z,17.60
2018-11-10T00:34:49.667Z,19.40
2018-11-10T00:35:49.556Z,18.60
2018-11-10T00:36:49.535Z,19.60
2018-11-10T00:37:49.539Z,20.40
2018-11-10T00:38:49.512Z,20.50
2018-11-10T00:39:49.505Z,18.80
2018-11-10T00:40:49.500Z,19.90
2018-11-10T00:41:49.475Z,18.60
2018-11-10T00:42:49.483Z,19.20
2018-11-10T00:43:49.460Z,17.40
2018-11-10T00:44:49.458Z,18.40
2018-11-10T00:45:49.433Z,17.90
2018-11-10T00:46:49.431Z,19.50
2018-11-10T00:47:49.455Z,19.50
2018-11-10T00:48:49.399Z,18.10
2018-11-10T00:49:49.398Z,20.60
2018-11-10T00:50:49.383Z,19.40
2018-11-10T00:51:49.379Z,18.30
2018-11-10T00:52:49.381Z,20.60
2018-11-10T00:53:49.351Z,20.50
2018-11-10T00:54:49.348Z,21.70
2018-11-10T00:55:49.345Z,17.70
2018-11-10T00:56:49.317Z,20.90
2018-11-10T00:57:49.381Z,20.50
2018-11-10T00:58:49.317Z,19.60
2018-11-10T00:59:49.281Z,20.40
2018-11-10T01:00:49.285Z,19.80
2018-11-10T01:01:49.298Z,19.30
2018-11-10T01:02:49.248Z,20.70
2018-11-10T01:03:49.268Z,20.00
2018-11-10T01:04:49.238Z,18.80
2018-11-10T01:05:49.220Z,18.80
2018-11-10T01:06:49.228Z,18.90
2018-11-10T01:07:49.195Z,19.50
2018-11-10T01:08:49.185Z,18.80
2018-11-10T01:09:49.203Z,21.60
2018-11-10T01:10:49.174Z,18.30
2018-11-10T01:11:49.164Z,22.30
2018-11-10T01:12:49.187Z,22.10
2018-11-10T01:13:49.131Z,20.20
2018-11-10T01:14:49.121Z,19.90
2018-11-10T01:15:49.135Z,20.70
2018-11-10T01:16:49.103Z,17.60
2018-11-10T01:17:49.091Z,19.00
2018-11-10T01:18:49.081Z,21.10
2018-11-10T01:19:49.067Z,21.00
2018-11-10T01:20:49.060Z,19.20
2018-11-10T01:21:49.070Z,20.40
2018-11-10T01:22:49.034Z,19.40
2018-11-10T01:23:49.062Z,20.10
2018-11-10T01:24:49.036Z,18.60
2018-11-10T01:25:49.002Z,17.50
2018-11-10T01:26:48.989Z,17.00
2018-11-10T01:27:49.074Z,18.50
2018-11-10T01:28:48.996Z,18.70
2018-11-10T01:29:48.963Z,17.20
2018-11-10T01:30:48.969Z,17.30
2018-11-10T01:31:48.983Z,19.60
2018-11-10T01:32:48.927Z,17.80
2018-11-10T01:33:48.943Z,17.40
2018-11-10T01:34:48.914Z,19.00
2018-11-10T01:35:48.936Z,20.00
2018-11-10T01:36:48.882Z,22.00
2018-11-10T01:37:48.875Z,17.80
2018-11-10T01:38:48.861Z,21.90
2018-11-10T01:39:48.936Z,18.40
2018-11-10T01:40:48.839Z,20.80
2018-11-10T01:41:48.939Z,16.40
2018-11-10T01:42:48.823Z,19.10
2018-11-10T01:43:48.803Z,17.50
2018-11-10T01:44:48.802Z,18.00
2018-11-10T01:45:48.817Z,17.80
2018-11-10T01:46:48.773Z,19.50
2018-11-10T01:47:48.765Z,18.10
2018-11-10T01:48:48.755Z,20.90
2018-11-10T01:49:48.744Z,18.50
2018-11-10T01:50:48.729Z,18.30
2018-11-10T01:51:48.750Z,18.90
2018-11-10T01:52:48.711Z,19.00
2018-11-10T01:53:48.706Z,19.30
2018-11-10T01:54:48.685Z,17.30
2018-11-10T01:55:48.674Z,18.90
2018-11-10T01:56:48.668Z,16.90
2018-11-10T01:57:48.680Z,17.50
2018-11-10T01:58:48.647Z,17.20
2018-11-10T01:59:48.636Z,16.70
2018-11-10T02:00:48.637Z,16.60
2018-11-10T02:01:56.209Z,15.30
2018-11-10T02:02:48.604Z,17.00
2018-11-10T02:03:48.615Z,17.00
2018-11-10T02:04:48.585Z,15.80
2018-11-10T02:05:48.565Z,18.50
2018-11-10T02:06:48.594Z,16.90
2018-11-10T02:07:48.545Z,17.90
2018-11-10T02:08:48.537Z,16.30
2018-11-10T02:09:48.549Z,15.90
2018-11-10T02:10:48.553Z,16.60
2018-11-10T02:11:48.544Z,15.70
2018-11-10T02:12:48.490Z,16.10
2018-11-10T02:13:48.507Z,19.20
2018-11-10T02:14:48.469Z,17.40
2018-11-10T02:15:48.489Z,15.60
2018-11-10T02:16:48.445Z,15.60
2018-11-10T02:17:48.444Z,16.90
2018-11-10T02:18:48.441Z,15.40
2018-11-10T02:19:48.427Z,15.70
2018-11-10T02:20:48.407Z,16.50
2018-11-10T02:21:48.424Z,17.40
2018-11-10T02:22:48.389Z,16.50
2018-11-10T02:23:48.372Z,16.60
2018-11-10T02:24:48.360Z,14.60
2018-11-10T02:25:48.359Z,16.30
2018-11-10T02:26:48.337Z,17.70
2018-11-10T02:27:48.365Z,17.70
2018-11-10T02:28:48.319Z,16.20
2018-11-10T02:29:48.305Z,15.00
2018-11-10T02:30:48.294Z,16.60
2018-11-10T02:31:48.312Z,15.90
2018-11-10T02:32:48.283Z,17.30
2018-11-10T02:33:48.287Z,14.80
2018-11-10T02:34:48.250Z,13.80
2018-11-10T02:35:48.311Z,16.00
2018-11-10T02:36:48.273Z,17.60
2018-11-10T02:37:48.238Z,14.20
2018-11-10T02:38:48.309Z,15.60
2018-11-10T02:39:48.266Z,17.00
2018-11-10T02:40:48.223Z,16.40
2018-11-10T02:41:48.193Z,14.80
2018-11-10T02:42:48.167Z,16.90
2018-11-10T02:43:48.158Z,15.00
2018-11-10T02:44:48.159Z,14.70
2018-11-10T02:45:48.192Z,13.20
2018-11-10T02:46:48.123Z,13.10
2018-11-10T02:47:48.114Z,14.90
2018-11-10T02:48:48.114Z,15.20
2018-11-10T02:49:48.087Z,14.60
2018-11-10T02:50:48.109Z,15.50
2018-11-10T02:51:48.104Z,14.00
2018-11-10T02:52:48.062Z,14.00
2018-11-10T02:53:48.049Z,14.60
2018-11-10T02:54:48.041Z,17.60
2018-11-10T02:55:48.037Z,14.00
2018-11-10T02:56:48.038Z,12.80
2018-11-10T02:57:48.070Z,15.70
2018-11-10T02:58:48.000Z,13.50
2018-11-10T02:59:47.994Z,12.60
2018-11-10T03:00:47.980Z,17.00
2018-11-10T03:01:47.963Z,13.60
2018-11-10T03:02:47.962Z,12.80
2018-11-10T03:03:47.980Z,13.30
2018-11-10T03:04:47.930Z,13.00
2018-11-10T03:05:47.921Z,12.70
2018-11-10T03:06:47.916Z,12.60
2018-11-10T03:07:47.945Z,10.50
2018-11-10T03:08:47.886Z,12.70
2018-11-10T03:09:47.927Z,12.50
2018-11-10T03:10:47.975Z,11.00
2018-11-10T03:11:47.863Z,13.90
2018-11-10T03:12:47.842Z,11.00
2018-11-10T03:13:47.891Z,11.50
2018-11-10T03:14:47.828Z,10.90
2018-11-10T03:15:47.831Z,10.10
2018-11-10T03:16:47.799Z,11.00
2018-11-10T03:17:47.832Z,11.70
2018-11-10T03:18:47.784Z,10.40
2018-11-10T03:19:47.779Z,10.40
2018-11-10T03:20:47.756Z,10.50
2018-11-10T03:21:47.775Z,10.30
2018-11-10T03:22:47.747Z,10.20
2018-11-10T03:23:47.735Z,10.00
2018-11-10T03:24:47.717Z,12.20
2018-11-10T03:25:47.798Z,9.80
2018-11-10T03:26:47.695Z,10.30
2018-11-10T03:27:47.712Z,8.30
2018-11-10T03:28:47.673Z,10.10
2018-11-10T03:29:47.660Z,10.20
2018-11-10T03:30:47.654Z,10.20
2018-11-10T03:31:47.646Z,7.10
2018-11-10T03:32:47.636Z,8.70
2018-11-10T03:33:47.666Z,7.80
2018-11-10T03:34:47.609Z,9.00
2018-11-10T03:35:47.602Z,8.70
2018-11-10T03:36:47.599Z,9.30
2018-11-10T03:37:47.607Z,9.90
2018-11-10T03:38:47.568Z,8.80
2018-11-10T03:39:47.663Z,8.40
2018-11-10T03:40:47.593Z,8.00
2018-11-10T03:41:47.546Z,8.60
2018-11-10T03:42:47.525Z,10.00
2018-11-10T03:43:47.515Z,8.70
2018-11-10T03:44:47.507Z,8.60
2018-11-10T03:45:47.521Z,9.30
2018-11-10T03:46:47.495Z,11.00
2018-11-10T03:47:47.471Z,9.90
2018-11-10T03:48:47.586Z,8.60
2018-11-10T03:49:47.457Z,9.60
2018-11-10T03:50:47.440Z,9.10
2018-11-10T03:51:47.467Z,8.10
2018-11-10T03:52:47.429Z,11.80
2018-11-10T03:53:47.413Z,9.50
2018-11-10T03:54:47.427Z,9.80
2018-11-10T03:55:47.387Z,12.40
2018-11-10T03:56:47.393Z,11.30
2018-11-10T03:57:47.408Z,9.20
2018-11-10T03:58:47.356Z,10.70
2018-11-10T03:59:47.348Z,13.00
2018-11-10T04:00:47.379Z,11.50
2018-11-10T04:01:47.323Z,11.50
2018-11-10T04:02:47.313Z,11.80
2018-11-10T04:03:47.382Z,11.90
2018-11-10T04:04:47.289Z,12.50
2018-11-10T04:05:47.284Z,12.30
2018-11-10T04:06:47.272Z,11.20
2018-11-10T04:07:47.301Z,12.10
2018-11-10T04:08:47.347Z,10.50
2018-11-10T04:09:47.274Z,9.90
2018-11-10T04:10:47.226Z,10.30
2018-11-10T04:11:47.523Z,9.20
2018-11-10T04:12:47.211Z,10.20
2018-11-10T04:13:47.196Z,11.90
2018-11-10T04:14:47.193Z,10.10
2018-11-10T04:15:47.202Z,12.00
2018-11-10T04:16:47.171Z,10.40
2018-11-10T04:17:47.181Z,10.50
2018-11-10T04:18:47.174Z,10.90
2018-11-10T04:19:47.168Z,10.40
2018-11-10T04:20:47.123Z,10.80
2018-11-10T04:21:47.121Z,10.90
2018-11-10T04:22:47.502Z,10.20
2018-11-10T04:23:47.108Z,9.70
2018-11-10T04:24:47.081Z,9.20
2018-11-10T04:25:47.071Z,10.60
2018-11-10T04:26:47.057Z,9.50
2018-11-10T04:27:47.050Z,13.70
2018-11-10T04:28:55.964Z,10.90
2018-11-10T04:29:47.074Z,12.10
2018-11-10T04:30:47.026Z,10.10
2018-11-10T04:31:47.003Z,9.90
2018-11-10T04:32:47.003Z,10.70
2018-11-10T04:33:47.079Z,10.40
2018-11-10T04:34:46.981Z,13.00
2018-11-10T04:35:46.981Z,10.10
2018-11-10T04:36:46.953Z,10.40
2018-11-10T04:37:46.943Z,10.70
2018-11-10T04:38:46.980Z,9.80
2018-11-10T04:39:46.924Z,12.10
2018-11-10T04:40:46.921Z,10.10
2018-11-10T04:41:46.901Z,11.40
2018-11-10T04:42:46.892Z,10.50
2018-11-10T04:43:46.914Z,10.60
2018-11-10T04:44:46.873Z,10.80
2018-11-10T04:45:46.861Z,13.20
2018-11-10T04:46:46.874Z,10.30
2018-11-10T04:47:46.853Z,11.10
2018-11-10T04:48:46.845Z,12.80
2018-11-10T04:49:46.826Z,11.90
2018-11-10T04:50:46.815Z,13.20
2018-11-10T04:51:46.796Z,14.40
2018-11-10T04:52:46.809Z,11.70
2018-11-10T04:53:46.843Z,12.90
2018-11-10T04:54:46.775Z,12.00
2018-11-10T04:55:46.791Z,12.10
2018-11-10T04:56:46.772Z,12.60
2018-11-10T04:57:46.732Z,13.20
2018-11-10T04:58:46.766Z,13.90
2018-11-10T04:59:46.707Z,14.90
2018-11-10T05:00:46.700Z,13.40
2018-11-10T05:01:46.697Z,13.90
2018-11-10T05:02:46.716Z,11.70
2018-11-10T05:03:46.673Z,15.30
2018-11-10T05:04:46.951Z,14.80
2018-11-10T05:05:46.642Z,13.30
2018-11-10T05:06:46.633Z,13.50
2018-11-10T05:07:46.648Z,12.70
2018-11-10T05:08:46.637Z,13.50
2018-11-10T05:09:46.615Z,13.70
2018-11-10T05:10:46.646Z,13.00
2018-11-10T05:11:46.576Z,13.40
2018-11-10T05:12:46.573Z,13.30
2018-11-10T05:13:46.558Z,14.70
2018-11-10T05:14:46.598Z,14.00
2018-11-10T05:15:46.562Z,12.00
2018-11-10T05:16:46.566Z,14.30
2018-11-10T05:17:46.534Z,14.10
2018-11-10T05:18:46.513Z,14.30
2018-11-10T05:19:46.493Z,15.90
2018-11-10T05:20:46.481Z,13.40
2018-11-10T05:21:46.495Z,14.80
2018-11-10T05:22:46.487Z,14.70
2018-11-10T05:23:46.447Z,14.50
2018-11-10T05:24:46.479Z,16.00
2018-11-10T05:25:46.431Z,13.40
2018-11-10T05:26:46.433Z,11.80
2018-11-10T05:27:46.424Z,12.60
2018-11-10T05:28:46.423Z,13.90
2018-11-10T05:29:46.412Z,13.60
2018-11-10T05:30:53.934Z,11.30
2018-11-10T05:31:46.372Z,14.80
2018-11-10T05:32:46.365Z,13.10
2018-11-10T05:33:46.344Z,11.40
2018-11-10T05:34:46.372Z,16.30
2018-11-10T05:35:46.321Z,13.60
2018-11-10T05:36:46.315Z,12.90
2018-11-10T05:37:46.298Z,12.80
2018-11-10T05:38:46.320Z,14.90
2018-11-10T05:39:46.281Z,13.30
2018-11-10T05:40:46.311Z,12.80
2018-11-10T05:41:46.282Z,13.00
2018-11-10T05:42:46.258Z,10.90
2018-11-10T05:43:46.234Z,14.20
2018-11-10T05:44:46.233Z,14.50
2018-11-10T05:45:46.218Z,11.80
2018-11-10T05:46:46.250Z,13.30
2018-11-10T05:47:46.198Z,11.10
2018-11-10T05:48:46.221Z,12.80
2018-11-10T05:49:46.168Z,11.30
2018-11-10T05:50:46.168Z,13.30
2018-11-10T05:51:46.153Z,12.80
2018-11-10T05:52:46.192Z,13.60
2018-11-10T05:53:46.129Z,12.20
2018-11-10T05:54:46.122Z,13.30
2018-11-10T05:55:46.113Z,12.20
2018-11-10T05:56:46.103Z,14.10
2018-11-10T05:57:46.084Z,14.60
2018-11-10T05:58:46.105Z,12.50
2018-11-10T05:59:46.067Z,12.80
2018-11-10T06:00:46.051Z,13.70
2018-11-10T06:01:46.045Z,13.90
2018-11-10T06:02:46.151Z,15.10
2018-11-10T06:03:46.029Z,15.00
2018-11-10T06:04:46.043Z,11.80
2018-11-10T06:05:45.999Z,13.80
2018-11-10T06:06:45.987Z,14.00
2018-11-10T06:07:45.980Z,14.50
2018-11-10T06:08:45.971Z,13.80
2018-11-10T06:09:46.061Z,14.40
2018-11-10T06:10:46.065Z,15.70
2018-11-10T06:11:53.512Z,12.40
2018-11-10T06:12:45.978Z,13.30
2018-11-10T06:13:45.945Z,15.10
2018-11-10T06:14:45.903Z,13.70
2018-11-10T06:15:45.921Z,14.00
2018-11-10T06:16:45.901Z,14.30
2018-11-10T06:17:45.870Z,15.00
2018-11-10T06:18:45.935Z,13.80
2018-11-10T06:19:45.860Z,16.30
2018-11-10T06:20:45.934Z,14.70
2018-11-10T06:21:45.859Z,15.40
2018-11-10T06:22:45.857Z,13.60
2018-11-10T06:23:45.828Z,13.50
2018-11-10T06:24:45.810Z,12.70
2018-11-10T06:25:45.785Z,13.20
2018-11-10T06:26:45.923Z,16.30
2018-11-10T06:27:45.759Z,14.80
2018-11-10T06:28:45.775Z,13.50
2018-11-10T06:29:45.738Z,15.40
2018-11-10T06:30:45.787Z,18.50
2018-11-10T06:31:45.716Z,14.70
2018-11-10T06:32:45.811Z,12.90
2018-11-10T06:33:45.776Z,14.50
2018-11-10T06:34:45.685Z,14.00
2018-11-10T06:35:45.674Z,14.70
2018-11-10T06:36:45.669Z,14.40
2018-11-10T06:37:45.698Z,16.90
2018-11-10T06:38:45.646Z,15.00
2018-11-10T06:39:45.648Z,19.30
2018-11-10T06:40:45.623Z,14.80
2018-11-10T06:41:45.623Z,16.50
2018-11-10T06:42:45.625Z,16.20
2018-11-10T06:43:45.590Z,16.90
2018-11-10T06:44:45.580Z,15.80
2018-11-10T06:45:45.573Z,16.00
2018-11-10T06:46:45.556Z,16.80
2018-11-10T06:47:45.571Z,16.20
2018-11-10T06:48:45.531Z,15.70
2018-11-10T06:49:45.522Z,18.90
2018-11-10T06:50:45.510Z,16.80
2018-11-10T06:51:45.499Z,15.30
2018-11-10T06:52:45.495Z,14.80
2018-11-10T06:53:45.539Z,15.00
2018-11-10T06:54:53.021Z,15.30
2018-11-10T06:55:45.456Z,17.30
2018-11-10T06:56:45.462Z,15.10
2018-11-10T06:57:45.456Z,17.40
2018-11-10T06:58:45.430Z,17.70
2018-11-10T06:59:45.481Z,16.60
2018-11-10T07:00:45.412Z,17.50
2018-11-10T07:01:45.395Z,17.80
2018-11-10T07:02:55.165Z,18.30
2018-11-10T07:03:45.367Z,17.80
2018-11-10T07:04:45.363Z,17.70
2018-11-10T07:05:45.392Z,16.70
2018-11-10T07:06:45.333Z,16.20
2018-11-10T07:07:45.327Z,17.50
2018-11-10T07:08:45.316Z,15.10
2018-11-10T07:09:45.305Z,15.30
2018-11-10T07:10:45.329Z,17.40
2018-11-10T07:11:45.287Z,18.10
2018-11-10T07:12:45.268Z,16.20
2018-11-10T07:13:45.265Z,15.60
2018-11-10T07:14:45.247Z,15.60
2018-11-10T07:15:45.263Z,16.20
2018-11-10T07:16:45.283Z,18.90
2018-11-10T07:17:45.301Z,17.10
2018-11-10T07:18:45.242Z,16.20
2018-11-10T07:19:45.199Z,18.00
2018-11-10T07:20:45.185Z,18.70
2018-11-10T07:21:45.173Z,17.80
2018-11-10T07:22:45.163Z,20.00
2018-11-10T07:23:45.168Z,18.70
2018-11-10T07:24:45.224Z,17.80
2018-11-10T07:25:45.137Z,19.30
2018-11-10T07:26:45.119Z,17.30
2018-11-10T07:27:45.104Z,16.70
2018-11-10T07:28:45.115Z,19.30
2018-11-10T07:29:45.088Z,18.00
2018-11-10T07:30:45.071Z,20.00
2018-11-10T07:31:45.083Z,17.60
2018-11-10T07:32:45.052Z,17.00
2018-11-10T07:35:06.874Z,15.00
2018-11-10T07:36:06.855Z,19.00
2018-11-10T07:37:06.786Z,17.10
2018-11-10T07:38:06.927Z,17.40
2018-11-10T07:39:06.902Z,16.00
2018-11-10T07:40:06.895Z,17.90
2018-11-10T07:41:06.824Z,15.60
2018-11-10T07:42:06.706Z,16.20
2018-11-10T07:43:06.777Z,15.50
2018-11-10T07:44:06.703Z,16.90
2018-11-10T07:45:06.676Z,17.50
2018-11-10T07:46:06.687Z,17.00
2018-11-10T07:47:06.650Z,17.00
2018-11-10T07:48:06.648Z,18.10
2018-11-10T07:49:06.686Z,16.30
2018-11-10T07:50:06.616Z,18.10
2018-11-10T07:51:06.633Z,15.80
2018-11-10T07:52:06.636Z,14.40
2018-11-10T07:53:06.588Z,16.10
2018-11-10T07:54:06.594Z,17.60
2018-11-10T07:55:06.569Z,14.70
2018-11-10T07:56:06.553Z,13.20
2018-11-10T07:57:06.591Z,14.50
2018-11-10T07:58:14.096Z,14.00
2018-11-10T07:59:16.507Z,15.50
2018-11-10T08:00:14.066Z,16.00
2018-11-10T08:01:14.058Z,14.50
2018-11-10T08:02:16.084Z,14.80
2018-11-10T08:03:15.186Z,14.40
2018-11-10T08:04:06.535Z,15.00
2018-11-10T08:05:06.471Z,13.00
2018-11-10T08:06:06.495Z,13.60
2018-11-10T08:07:06.494Z,12.80
2018-11-10T08:08:06.433Z,14.90
2018-11-10T08:09:16.248Z,14.70
2018-11-10T08:10:06.407Z,14.10
2018-11-10T08:11:06.416Z,15.80
2018-11-10T08:12:06.376Z,13.60
2018-11-10T08:13:06.386Z,13.40
2018-11-10T08:14:06.373Z,13.10
2018-11-10T08:15:06.375Z,14.10
2018-11-10T08:16:06.364Z,14.70
2018-11-10T08:17:06.334Z,11.60
2018-11-10T08:18:06.318Z,12.90
2018-11-10T08:19:06.371Z,18.70
2018-11-10T08:20:06.324Z,14.00
2018-11-10T08:21:06.284Z,12.10
2018-11-10T08:22:06.288Z,13.80
2018-11-10T08:23:06.264Z,13.50
2018-11-10T08:24:06.305Z,13.70
2018-11-10T08:25:06.332Z,14.70
2018-11-10T08:26:06.227Z,12.90
2018-11-10T08:27:06.218Z,13.30
2018-11-10T08:28:06.219Z,13.90
2018-11-10T08:29:06.197Z,15.00
2018-11-10T08:30:06.200Z,13.70
2018-11-10T08:31:06.237Z,12.70
2018-11-10T08:32:06.169Z,13.10
2018-11-10T08:33:06.148Z,13.20
2018-11-10T08:34:06.137Z,15.00
2018-11-10T08:35:06.174Z,11.70
2018-11-10T08:36:06.169Z,11.10
2018-11-10T08:37:06.103Z,10.80
2018-11-10T08:38:06.100Z,11.50
2018-11-10T08:39:06.146Z,11.70
2018-11-10T08:40:06.183Z,10.00
2018-11-10T08:41:06.105Z,12.80
2018-11-10T08:42:06.054Z,11.00
2018-11-10T08:43:06.113Z,10.80
2018-11-10T08:44:06.076Z,11.60
2018-11-10T08:45:06.070Z,10.40
2018-11-10T08:46:06.071Z,11.50
2018-11-10T08:47:05.999Z,8.90
2018-11-10T08:48:05.984Z,8.90
2018-11-10T08:49:06.027Z,11.80
2018-11-10T08:50:05.964Z,10.00
2018-11-10T08:51:05.969Z,12.40
2018-11-10T08:52:05.935Z,9.00
2018-11-10T08:53:05.943Z,10.50
2018-11-10T08:54:05.924Z,11.90
2018-11-10T08:55:05.903Z,8.20
2018-11-10T08:56:05.918Z,7.90
2018-11-10T08:57:05.884Z,6.80
2018-11-10T08:58:05.872Z,5.70
2018-11-10T08:59:05.918Z,5.40
2018-11-10T09:00:05.851Z,3.60
2018-11-10T09:01:05.893Z,4.50
2018-11-10T09:02:05.860Z,3.80
2018-11-10T09:03:05.956Z,5.10
2018-11-10T09:04:05.811Z,3.20
2018-11-10T09:05:05.832Z,4.00
2018-11-10T09:06:05.803Z,3.10
2018-11-10T09:07:05.773Z,2.20
2018-11-10T09:08:05.766Z,2.70
2018-11-10T09:09:05.751Z,4.30
2018-11-10T09:10:05.737Z,2.50
2018-11-10T09:11:05.747Z,2.20
2018-11-10T09:12:05.723Z,2.70
2018-11-10T09:13:05.732Z,2.30
2018-11-10T09:14:05.704Z,2.50
2018-11-10T09:15:05.784Z,2.10
2018-11-10T09:16:05.719Z,4.40
2018-11-10T09:17:05.690Z,8.10
2018-11-10T09:18:05.665Z,4.50
2018-11-10T09:19:05.662Z,3.20
2018-11-10T09:20:05.665Z,3.00
2018-11-10T09:21:05.667Z,2.40
2018-11-10T09:22:05.639Z,3.60
2018-11-10T09:23:05.639Z,2.70
2018-11-10T09:24:05.597Z,2.60
2018-11-10T09:25:05.580Z,2.70
2018-11-10T09:26:05.617Z,3.70
2018-11-10T09:27:05.602Z,2.60
2018-11-10T09:28:05.578Z,2.00
2018-11-10T09:29:05.648Z,2.70
2018-11-10T09:30:05.532Z,2.80
2018-11-10T09:31:05.672Z,2.10
2018-11-10T09:32:05.530Z,1.80
2018-11-10T09:33:05.491Z,2.80
2018-11-10T09:34:05.479Z,1.90
2018-11-10T09:35:05.479Z,2.90
2018-11-10T09:36:05.480Z,2.90
2018-11-10T09:37:05.473Z,2.20
2018-11-10T09:38:05.471Z,2.10
2018-11-10T09:39:05.433Z,2.00
2018-11-10T09:40:05.418Z,1.90
2018-11-10T09:41:05.410Z,2.90
2018-11-10T09:42:05.489Z,3.80
2018-11-10T09:43:05.402Z,3.10
2018-11-10T09:44:05.420Z,2.30
2018-11-10T09:45:05.369Z,3.30
2018-11-10T09:46:05.380Z,4.40
2018-11-10T09:47:05.417Z,3.40
2018-11-10T09:48:05.372Z,3.30
2018-11-10T09:49:05.316Z,2.10
2018-11-10T09:50:05.334Z,3.60
2018-11-10T09:51:05.295Z,2.10
2018-11-10T09:52:05.308Z,2.90
2018-11-10T09:53:05.283Z,2.90
2018-11-10T09:54:05.290Z,3.00
2018-11-10T09:55:05.286Z,3.10
2018-11-10T09:56:05.245Z,1.50
2018-11-10T09:57:05.293Z,1.70
2018-11-10T09:58:05.222Z,2.00
2018-11-10T09:59:05.208Z,1.90
2018-11-10T10:00:05.196Z,2.00
2018-11-10T10:01:05.228Z,23.20
2018-11-10T10:02:05.611Z,3.90
2018-11-10T10:03:05.166Z,3.20
2018-11-10T10:04:05.245Z,2.80
2018-11-10T10:05:05.147Z,3.80
2018-11-10T10:06:05.206Z,2.20
2018-11-10T10:07:05.146Z,2.10
2018-11-10T10:08:05.143Z,1.90
2018-11-10T10:09:05.145Z,2.00
2018-11-10T10:10:05.091Z,1.70
2018-11-10T10:11:05.084Z,3.60
2018-11-10T10:12:05.091Z,2.40
2018-11-10T10:13:05.089Z,2.90
2018-11-10T10:14:05.049Z,2.00
2018-11-10T10:15:05.038Z,2.50
2018-11-10T10:16:05.098Z,2.80
2018-11-10T10:17:05.085Z,2.50
2018-11-10T10:18:05.014Z,1.80
2018-11-10T10:19:05.012Z,1.90
2018-11-10T10:20:05.002Z,2.30
2018-11-10T10:21:05.042Z,3.10
2018-11-10T10:22:04.969Z,3.40
2018-11-10T10:23:05.090Z,4.80
2018-11-10T10:24:04.944Z,3.00
2018-11-10T10:25:04.961Z,2.30
2018-11-10T10:26:04.948Z,2.00
2018-11-10T10:27:04.905Z,3.10
2018-11-10T10:28:04.933Z,2.50
2018-11-10T10:29:04.975Z,3.20
2018-11-10T10:30:04.880Z,2.90
2018-11-10T10:31:04.861Z,2.80
2018-11-10T10:32:04.852Z,3.50
2018-11-10T10:33:04.964Z,3.00
2018-11-10T10:34:05.014Z,4.70
2018-11-10T10:35:04.924Z,4.30
2018-11-10T10:36:04.816Z,4.60
2018-11-10T10:37:04.793Z,3.50
2018-11-10T10:38:04.805Z,5.40
2018-11-10T10:39:04.793Z,5.40
2018-11-10T10:40:06.900Z,4.40
2018-11-10T10:41:04.817Z,4.00
2018-11-10T10:42:04.935Z,5.00
2018-11-10T10:43:04.853Z,5.50
2018-11-10T10:44:04.744Z,5.20
2018-11-10T10:45:04.740Z,4.70
2018-11-10T10:46:04.696Z,6.10
2018-11-10T10:47:04.731Z,3.10
2018-11-10T10:48:04.712Z,5.60
2018-11-10T10:49:04.791Z,5.80
2018-11-10T10:50:04.691Z,5.30
2018-11-10T10:51:04.661Z,6.30
2018-11-10T10:52:04.651Z,3.90
2018-11-10T10:53:04.674Z,5.30
2018-11-10T10:54:04.675Z,5.00
2018-11-10T10:55:04.683Z,5.00
2018-11-10T10:56:04.687Z,6.10
2018-11-10T10:57:04.703Z,5.40
2018-11-10T10:58:04.602Z,5.90
2018-11-10T10:59:04.574Z,5.00
2018-11-10T11:00:04.552Z,6.00
2018-11-10T11:01:04.589Z,5.70
2018-11-10T11:02:04.528Z,6.80
2018-11-10T11:03:04.703Z,6.10
2018-11-10T11:04:04.567Z,7.10
2018-11-10T11:05:04.490Z,5.30
2018-11-10T11:06:04.484Z,6.50
2018-11-10T11:07:04.477Z,5.50
2018-11-10T11:08:04.496Z,6.70
2018-11-10T11:09:04.516Z,7.10
2018-11-10T11:10:04.477Z,7.50
2018-11-10T11:11:04.424Z,8.80
2018-11-10T11:12:04.430Z,6.00
2018-11-10T11:13:04.421Z,6.60
2018-11-10T11:14:04.419Z,5.80
2018-11-10T11:15:04.481Z,5.80
2018-11-10T11:16:04.376Z,7.50
2018-11-10T11:17:04.368Z,9.40
2018-11-10T11:18:04.355Z,6.20
2018-11-10T11:19:04.342Z,6.20
2018-11-10T11:20:04.349Z,7.70
2018-11-10T11:21:04.346Z,8.30
2018-11-10T11:22:04.427Z,7.70
2018-11-10T11:23:04.295Z,8.00
2018-11-10T11:24:04.296Z,6.90
2018-11-10T11:25:04.297Z,6.30
2018-11-10T11:26:04.283Z,7.00
2018-11-10T11:27:04.258Z,6.00
2018-11-10T11:28:04.252Z,8.50
2018-11-10T11:29:04.331Z,7.00
2018-11-10T11:30:04.249Z,5.90
2018-11-10T11:31:04.234Z,7.20
2018-11-10T11:32:04.197Z,5.90
2018-11-10T11:33:04.227Z,8.70
2018-11-10T11:34:04.230Z,6.80
2018-11-10T11:35:04.636Z,7.50
2018-11-10T11:36:04.158Z,9.60
2018-11-10T11:37:04.151Z,10.60
2018-11-10T11:38:04.137Z,8.40
2018-11-10T11:39:04.142Z,8.80
2018-11-10T11:40:04.140Z,8.50
2018-11-10T11:41:04.193Z,8.00
2018-11-10T11:42:04.095Z,10.60
2018-11-10T11:43:04.088Z,9.20
2018-11-10T11:44:04.100Z,10.20
2018-11-10T11:45:04.064Z,9.70
2018-11-10T11:46:04.122Z,10.00
2018-11-10T11:47:04.035Z,9.50
2018-11-10T11:48:04.049Z,10.60
2018-11-10T11:49:04.015Z,10.00
2018-11-10T11:50:04.009Z,9.80
2018-11-10T11:51:04.017Z,13.20
2018-11-10T11:52:03.985Z,10.50
2018-11-10T11:53:03.983Z,12.30
2018-11-10T11:54:03.968Z,10.30
2018-11-10T11:55:03.949Z,11.30
2018-11-10T11:56:03.973Z,13.10
2018-11-10T11:57:03.969Z,9.60
2018-11-10T11:58:04.157Z,10.20
2018-11-10T11:59:04.009Z,11.70
2018-11-10T12:00:03.900Z,9.90
2018-11-10T12:01:03.927Z,11.90
2018-11-10T12:02:03.972Z,11.10
2018-11-10T12:03:03.898Z,10.60
2018-11-10T12:04:13.497Z,11.30
2018-11-10T12:05:03.849Z,11.10
2018-11-10T12:06:03.853Z,10.70
2018-11-10T12:07:03.820Z,9.80
2018-11-10T12:08:03.852Z,11.00
2018-11-10T12:09:03.874Z,10.00
2018-11-10T12:10:03.787Z,9.60
2018-11-10T12:11:03.819Z,10.70
2018-11-10T12:12:03.782Z,10.50
2018-11-10T12:13:03.763Z,12.00
2018-11-10T12:14:03.747Z,8.70
2018-11-10T12:15:03.766Z,12.80
2018-11-10T12:16:03.727Z,10.50
2018-11-10T12:17:03.877Z,10.00
2018-11-10T12:18:03.703Z,10.40
2018-11-10T12:19:03.700Z,9.90
2018-11-10T12:20:03.676Z,11.60
2018-11-10T12:21:03.882Z,11.60
2018-11-10T12:22:03.727Z,11.40
2018-11-10T12:23:03.667Z,12.60
2018-11-10T12:24:03.633Z,11.50
2018-11-10T12:25:03.664Z,11.10
2018-11-10T12:26:03.654Z,10.70
2018-11-10T12:27:03.603Z,10.40
2018-11-10T12:28:03.672Z,10.70
2018-11-10T12:29:03.587Z,13.10
2018-11-10T12:30:03.598Z,12.30
2018-11-10T12:31:03.563Z,11.30
2018-11-10T12:32:03.690Z,10.90
2018-11-10T12:33:03.541Z,11.70
2018-11-10T12:34:03.549Z,12.30
2018-11-10T12:35:03.544Z,11.60
2018-11-10T12:36:03.510Z,9.90
2018-11-10T12:37:03.551Z,11.20
2018-11-10T12:38:03.532Z,10.50
2018-11-10T12:39:03.469Z,16.60
2018-11-10T12:40:03.468Z,11.10
2018-11-10T12:41:03.452Z,8.60
2018-11-10T12:42:03.498Z,11.60
2018-11-10T12:43:03.457Z,9.60
2018-11-10T12:44:03.424Z,10.00
2018-11-10T12:45:03.415Z,9.70
2018-11-10T12:46:03.404Z,12.70
2018-11-10T12:47:03.394Z,8.70
2018-11-10T12:48:03.435Z,9.20
2018-11-10T12:49:03.419Z,9.40
2018-11-10T12:50:03.385Z,7.40
2018-11-10T12:51:03.347Z,7.80
2018-11-10T12:52:03.341Z,9.70
2018-11-10T12:53:03.369Z,8.10
2018-11-10T12:54:03.322Z,8.80
2018-11-10T12:55:03.329Z,6.40
2018-11-10T12:56:03.312Z,7.40
2018-11-10T12:57:03.291Z,5.80
2018-11-10T12:58:03.362Z,6.60
2018-11-10T12:59:03.258Z,4.90
2018-11-10T13:00:11.816Z,6.40
2018-11-10T13:01:03.241Z,4.90
2018-11-10T13:02:03.231Z,8.70